Aérodrome :
LOGIN :

S'inscrire | Disclaimer

   EN    FR    IT 

 










Légende :    VFR   VFR Marginal   IFR   IFR Intensif   IFR Très Intensif
Visi : 
Plafond : 
>= 8 km
>= 3000ft
5 à 8 km
1000 à 3000 ft
1500m à 5 km
500 à 1000 ft
800 à 1500m
200 à 500 ft
< 800m
< 200 ft
Symboles :   Orages  Brouillard  Fortes neiges  Fortes précipitations  Vent > 20 kt
SIGMETs :   Divers  Orages  Givrage  Turbulence  Onde Orograph.  Cendres Volcan.






- Altitude de l'aérodrome : 499 ft
- Code IATA : TLS


LFBO - Toulouse / Blagnac

DERNIER METAR :
  • 220130Z AUTO 16002KT 5000 BR NSC 04/03 Q1031 NOSIG

METARs EXPIRÉS :
  • 220030Z AUTO VRB02KT 8000 NSC 04/03 Q1032 BECMG 4000 BR
  • 212300Z AUTO 20003KT CAVOK 05/04 Q1032 TEMPO 4000 BR
  • 212230Z AUTO 19003KT CAVOK 05/04 Q1032 TEMPO 4000 BR

TAF TAF LFBO
Valide du 21 à 18h jusqu'au 23 à 00h UTC


211700Z 2118/2224 31005KT 9999 BKN035
BECMG 2118/2120 VRB02KT CAVOK
TEMPO 2200/2204 4000 BR
PROB40
TEMPO 2204/2209 0500 FG VV///
PROB30
TEMPO 2209/2212 4000 BR BKN003
TEMPO 2210/2213 18005KT
TEMPO 2213/2216 35005KT
ATIS : +33 5 62 74 66 36



MET'MAP, la Météo Aéronautique d'un coup d'oeil ! - Copyright ORBIFLY Décembre 2007 - Disclaimer

ORBIFLY MET'MAP TEAM :

Programmation & Développement : Alexandra Zaïnal
Sur une idée originale de : Baudouin d'Aumeries
Assistance à la programmation : Marc-Olivier Méhu
Soutien technique & logistique : Manuel Goepfert

Contact : metmap@orbifly.com




SOURCES & CREDITS :

   NOAA